Time;durP1;ratioP1;P1;durP2;ratioP2;P2;SDS_P1;SDS_P2;PMS_P1;PMS_P2;Temp;Humidity;BMP_temperature;BMP_pressure;BME280_temperature;BME280_humidity;BME280_pressure;Samples;Min_cycle;Max_cycle;Signal;HPM_P1;HPM_P2
2023/03/29 00:00:40;;;;;;;3.20;3.00;;;;;;;;;;6226616;23;20410;-78
2023/03/29 00:03:13;;;;;;;3.27;3.00;;;;;;;;;;6227485;23;20466;-78
2023/03/29 00:05:46;;;;;;;3.63;3.10;;;;;;;;;;6230011;23;20441;-77
2023/03/29 00:08:17;;;;;;;3.53;3.23;;;;;;;;;;6219386;23;20504;-78
2023/03/29 00:10:50;;;;;;;4.07;2.90;;;;;;;;;;6215736;23;20878;-78
2023/03/29 00:13:19;;;;;;;3.30;3.00;;;;;;;;;;6215013;23;20429;-78
2023/03/29 00:15:46;;;;;;;3.63;3.30;;;;;;;;;;6213763;23;20454;-79
2023/03/29 00:18:17;;;;;;;3.40;3.03;;;;;;;;;;6214024;23;21203;-77
2023/03/29 00:20:45;;;;;;;3.37;3.07;;;;;;;;;;6214488;23;20489;-78
2023/03/29 00:23:12;;;;;;;3.40;3.10;;;;;;;;;;6213240;23;20415;-78
2023/03/29 00:25:47;;;;;;;3.07;2.77;;;;;;;;;;6213674;23;20433;-78
2023/03/29 00:28:14;;;;;;;4.57;3.07;;;;;;;;;;6213641;23;20418;-78
2023/03/29 00:30:44;;;;;;;3.23;3.00;;;;;;;;;;6214409;23;20418;-78
2023/03/29 00:33:12;;;;;;;3.40;3.13;;;;;;;;;;6213296;23;20468;-80
2023/03/29 00:35:42;;;;;;;3.23;2.93;;;;;;;;;;6213947;23;20783;-78
2023/03/29 00:38:13;;;;;;;3.10;2.90;;;;;;;;;;6214272;23;20394;-78
2023/03/29 00:40:43;;;;;;;3.50;3.30;;;;;;;;;;6213703;23;20959;-77
2023/03/29 00:43:13;;;;;;;3.30;3.00;;;;;;;;;;6213507;23;20418;-78
2023/03/29 00:45:44;;;;;;;3.17;2.90;;;;;;;;;;6214451;23;20516;-78
2023/03/29 00:48:12;;;;;;;2.93;2.73;;;;;;;;;;6213780;23;20900;-79
2023/03/29 00:50:41;;;;;;;3.37;3.17;;;;;;;;;;6214185;23;20403;-77
2023/03/29 00:53:11;;;;;;;2.93;2.73;;;;;;;;;;6214167;23;20473;-77
2023/03/29 00:55:53;;;;;;;3.20;3.00;;;;;;;;;;6214256;23;20434;-77
2023/03/29 00:58:23;;;;;;;5.07;3.10;;;;;;;;;;6214566;23;20840;-77
2023/03/29 01:00:56;;;;;;;3.00;2.80;;;;;;;;;;6214070;23;20414;-78
2023/03/29 01:03:31;;;;;;;3.80;3.50;;;;;;;;;;6214833;23;20920;-77
2023/03/29 01:06:24;;;;;;;3.20;2.90;;;;;;;;;;6215694;23;20568;-78
2023/03/29 01:09:09;;;;;;;3.67;3.07;;;;;;;;;;6216196;23;20743;-77
2023/03/29 01:11:50;;;;;;;3.10;2.90;;;;;;;;;;6216738;23;20464;-77
2023/03/29 01:14:38;;;;;;;2.73;2.60;;;;;;;;;;6218404;23;20418;-76
2023/03/29 01:17:09;;;;;;;3.20;2.90;;;;;;;;;;6218106;23;20414;-77
2023/03/29 01:19:58;;;;;;;4.23;2.90;;;;;;;;;;6216375;23;20410;-77
2023/03/29 01:22:38;;;;;;;3.57;3.27;;;;;;;;;;6216173;23;20421;-77
2023/03/29 01:25:21;;;;;;;3.40;3.10;;;;;;;;;;6215824;23;20430;-77
2023/03/29 01:28:03;;;;;;;3.00;2.83;;;;;;;;;;6215847;23;20406;-77
2023/03/29 01:33:30;;;;;;;3.57;3.27;;;;;;;;;;6209224;23;20888;-77
2023/03/29 01:36:12;;;;;;;;;;;;;;;;;;;;;
2023/03/29 01:38:55;;;;;;;3.20;3.00;;;;;;;;;;6219035;23;20394;-77
2023/03/29 01:41:43;;;;;;;5.03;3.20;;;;;;;;;;6218931;23;20405;-78
2023/03/29 01:44:38;;;;;;;3.80;3.60;;;;;;;;;;6220798;23;20421;-79
2023/03/29 01:47:20;;;;;;;4.07;3.60;;;;;;;;;;6223592;23;20454;-77
2023/03/29 01:49:55;;;;;;;3.20;3.03;;;;;;;;;;6223393;23;20525;-77
2023/03/29 01:52:35;;;;;;;3.13;2.93;;;;;;;;;;6221051;23;20410;-77
2023/03/29 01:55:17;;;;;;;3.40;3.10;;;;;;;;;;6219436;23;20418;-77
2023/03/29 01:57:52;;;;;;;3.33;3.13;;;;;;;;;;6221081;23;20791;-78
2023/03/29 02:00:30;;;;;;;2.80;2.60;;;;;;;;;;6221177;23;20432;-77
2023/03/29 02:03:08;;;;;;;3.70;3.40;;;;;;;;;;6221234;23;20410;-77
2023/03/29 02:05:42;;;;;;;3.57;3.30;;;;;;;;;;6222387;23;20422;-77
2023/03/29 02:08:15;;;;;;;3.37;3.10;;;;;;;;;;6224410;23;20418;-77
2023/03/29 02:10:52;;;;;;;3.20;2.90;;;;;;;;;;6223670;23;20493;-77
2023/03/29 02:13:27;;;;;;;3.40;3.13;;;;;;;;;;6224232;23;20421;-77
2023/03/29 02:15:55;;;;;;;3.30;3.10;;;;;;;;;;6224012;23;20433;-77
2023/03/29 02:18:33;;;;;;;3.17;2.97;;;;;;;;;;6224420;23;20501;-77
2023/03/29 02:21:13;;;;;;;3.30;3.00;;;;;;;;;;6225937;23;20416;-77
2023/03/29 02:23:47;;;;;;;3.43;3.10;;;;;;;;;;6225146;23;20441;-77
2023/03/29 02:26:22;;;;;;;3.97;3.67;;;;;;;;;;6226428;23;20430;-79
2023/03/29 02:29:03;;;;;;;3.40;3.20;;;;;;;;;;6198509;23;20429;-77
2023/03/29 02:31:37;;;;;;;3.00;2.87;;;;;;;;;;6200017;23;20499;-78
2023/03/29 02:34:14;;;;;;;3.77;3.47;;;;;;;;;;6201602;23;20371;-77
2023/03/29 02:36:53;;;;;;;3.40;3.17;;;;;;;;;;6200555;23;20414;-77
2023/03/29 02:39:24;;;;;;;2.97;2.77;;;;;;;;;;6200440;23;20403;-78
2023/03/29 02:42:09;;;;;;;5.47;3.10;;;;;;;;;;6199404;23;20422;-78
2023/03/29 02:44:42;;;;;;;3.40;3.10;;;;;;;;;;6196915;23;20493;-78
2023/03/29 02:47:22;;;;;;;3.43;3.23;;;;;;;;;;6199435;23;20467;-77
2023/03/29 02:50:12;;;;;;;3.17;2.97;;;;;;;;;;6200218;23;20466;-76
2023/03/29 02:52:43;;;;;;;3.37;3.07;;;;;;;;;;6199702;23;20411;-77
2023/03/29 02:55:22;;;;;;;3.23;2.93;;;;;;;;;;6200798;23;20466;-77
2023/03/29 02:58:04;;;;;;;3.80;3.50;;;;;;;;;;6200554;23;20410;-77
2023/03/29 03:00:45;;;;;;;2.60;2.40;;;;;;;;;;6201002;23;20474;-78
2023/03/29 03:06:22;;;;;;;3.27;2.97;;;;;;;;;;6197657;23;20406;-77
2023/03/29 03:09:06;;;;;;;4.50;3.47;;;;;;;;;;6194842;23;20881;-79
2023/03/29 03:11:35;;;;;;;3.30;3.10;;;;;;;;;;6190193;23;20955;-78
2023/03/29 03:14:17;;;;;;;5.13;3.30;;;;;;;;;;6187073;23;20415;-77
2023/03/29 03:16:48;;;;;;;3.20;3.00;;;;;;;;;;6187114;23;20901;-78
2023/03/29 03:19:27;;;;;;;5.13;3.33;;;;;;;;;;6187680;23;20885;-76
2023/03/29 03:21:58;;;;;;;3.20;3.00;;;;;;;;;;6188617;23;20414;-78
2023/03/29 03:24:32;;;;;;;3.47;3.27;;;;;;;;;;6187903;23;20502;-76
2023/03/29 03:27:01;;;;;;;3.13;2.83;;;;;;;;;;6196042;23;20449;-77
2023/03/29 03:29:29;;;;;;;3.77;3.27;;;;;;;;;;6217780;23;20438;-77
2023/03/29 03:32:11;;;;;;;3.90;3.50;;;;;;;;;;6222046;23;20409;-76
2023/03/29 03:34:50;;;;;;;2.83;2.60;;;;;;;;;;6222876;23;20484;-77
2023/03/29 03:37:27;;;;;;;3.00;2.80;;;;;;;;;;6223413;23;20430;-76
2023/03/29 03:40:10;;;;;;;2.47;2.27;;;;;;;;;;6224877;23;20393;-77
2023/03/29 03:42:42;;;;;;;3.17;2.87;;;;;;;;;;6222885;23;20410;-77
2023/03/29 03:45:19;;;;;;;2.80;2.60;;;;;;;;;;6223027;23;20468;-77
2023/03/29 03:48:02;;;;;;;2.83;2.63;;;;;;;;;;6218732;23;20500;-78
2023/03/29 03:50:38;;;;;;;4.33;3.23;;;;;;;;;;6218991;23;20430;-76
2023/03/29 03:53:22;;;;;;;2.60;2.50;;;;;;;;;;6219194;23;20480;-77
2023/03/29 03:58:50;;;;;;;2.77;2.57;;;;;;;;;;6207780;23;20798;-78
2023/03/29 04:01:29;;;;;;;3.10;2.90;;;;;;;;;;6218183;23;20407;-77
2023/03/29 04:04:04;;;;;;;2.97;2.47;;;;;;;;;;6216668;23;20401;-76
2023/03/29 04:06:38;;;;;;;2.83;2.63;;;;;;;;;;6219274;23;20464;-77
2023/03/29 04:09:12;;;;;;;3.63;2.63;;;;;;;;;;6219758;23;21042;-78
2023/03/29 04:11:54;;;;;;;2.60;2.50;;;;;;;;;;6218806;23;20883;-77
2023/03/29 04:14:39;;;;;;;2.67;2.47;;;;;;;;;;6219800;23;20414;-78
2023/03/29 04:17:19;;;;;;;2.67;2.50;;;;;;;;;;6223298;23;20414;-78
2023/03/29 04:20:00;;;;;;;3.27;2.90;;;;;;;;;;6224361;23;20915;-76
2023/03/29 04:22:37;;;;;;;3.23;2.70;;;;;;;;;;6222973;23;20410;-78
2023/03/29 04:25:33;;;;;;;3.03;2.60;;;;;;;;;;6224282;23;20493;-78
2023/03/29 04:28:08;;;;;;;2.83;2.40;;;;;;;;;;6227855;23;20410;-77
2023/03/29 04:31:06;;;;;;;2.53;2.30;;;;;;;;;;6228392;23;20441;-78
2023/03/29 04:33:45;;;;;;;2.97;2.77;;;;;;;;;;6230319;23;20502;-77
2023/03/29 04:36:27;;;;;;;3.40;3.10;;;;;;;;;;6229541;23;20456;-78
2023/03/29 04:39:08;;;;;;;3.20;2.90;;;;;;;;;;6224486;23;20440;-79
2023/03/29 04:41:42;;;;;;;2.53;2.43;;;;;;;;;;6221971;23;20426;-77
2023/03/29 04:44:16;;;;;;;2.77;2.50;;;;;;;;;;6219856;23;20410;-76
2023/03/29 04:49:47;;;;;;;2.63;2.43;;;;;;;;;;6220773;23;20466;-78
2023/03/29 04:52:31;;;;;;;3.33;3.03;;;;;;;;;;6222699;23;20545;-77
2023/03/29 04:55:16;;;;;;;3.30;2.23;;;;;;;;;;6226218;23;20477;-78
2023/03/29 05:00:45;;;;;;;11.20;10.07;;;;;;;;;;6206708;23;20457;-79
2023/03/29 05:03:22;;;;;;;2.83;2.63;;;;;;;;;;6228161;23;20434;-78
2023/03/29 05:05:53;;;;;;;2.90;2.63;;;;;;;;;;6226180;23;20406;-80
2023/03/29 05:08:29;;;;;;;2.50;2.30;;;;;;;;;;6226544;23;20386;-77
2023/03/29 05:11:05;;;;;;;2.80;2.60;;;;;;;;;;6219975;23;20449;-79
2023/03/29 05:13:45;;;;;;;2.87;2.00;;;;;;;;;;6222649;23;20794;-78
2023/03/29 05:16:28;;;;;;;2.70;2.50;;;;;;;;;;6222654;23;20528;-79
2023/03/29 05:19:12;;;;;;;2.10;2.00;;;;;;;;;;6223739;23;20476;-78
2023/03/29 05:21:40;;;;;;;2.30;2.20;;;;;;;;;;6224364;23;20429;-78
2023/03/29 05:24:13;;;;;;;2.73;2.53;;;;;;;;;;6230555;23;20410;-79
2023/03/29 05:26:46;;;;;;;2.60;2.40;;;;;;;;;;6234682;23;20441;-78
2023/03/29 05:29:19;;;;;;;2.50;2.30;;;;;;;;;;6236231;23;20493;-77
2023/03/29 05:32:03;;;;;;;2.50;2.30;;;;;;;;;;6236439;23;20413;-78
2023/03/29 05:34:50;;;;;;;2.47;2.37;;;;;;;;;;6235029;23;20386;-79
2023/03/29 05:37:33;;;;;;;2.63;2.20;;;;;;;;;;6234069;23;20418;-78
2023/03/29 05:40:16;;;;;;;2.47;2.27;;;;;;;;;;6235722;23;20412;-78
2023/03/29 05:42:49;;;;;;;3.47;3.17;;;;;;;;;;6234410;23;20477;-78
2023/03/29 05:48:39;;;;;;;3.10;2.80;;;;;;;;;;6206949;23;20420;-76
2023/03/29 05:51:22;;;;;;;2.30;2.10;;;;;;;;;;6219161;23;20440;-78
2023/03/29 05:54:09;;;;;;;2.77;1.90;;;;;;;;;;6217453;23;20438;-77
2023/03/29 05:56:52;;;;;;;3.77;2.40;;;;;;;;;;6169720;23;20429;-78
2023/03/29 05:59:41;;;;;;;2.90;2.10;;;;;;;;;;6218485;23;20414;-78
2023/03/29 06:02:24;;;;;;;2.10;2.00;;;;;;;;;;6174360;23;20403;-79
2023/03/29 06:08:09;;;;;;;2.30;2.13;;;;;;;;;;6213027;23;20967;-78
2023/03/29 06:10:45;;;;;;;4.33;2.80;;;;;;;;;;6219697;23;20462;-77
2023/03/29 06:13:21;;;;;;;2.97;2.60;;;;;;;;;;6225383;23;20417;-77
2023/03/29 06:15:52;;;;;;;2.40;2.30;;;;;;;;;;6229071;23;20452;-77
2023/03/29 06:21:16;;;;;;;2.30;2.20;;;;;;;;;;6207253;23;20508;-80
2023/03/29 06:26:51;;;;;;;9.10;2.70;;;;;;;;;;6203912;23;20410;-78
2023/03/29 06:32:11;;;;;;;3.30;2.67;;;;;;;;;;6215553;23;20991;-78
2023/03/29 08:16:53;;;;;;;6.10;3.03;;;;;;;;;;5936982;24;20427;-77
2023/03/29 08:19:44;;;;;;;4.73;2.40;;;;;;;;;;5901795;24;20423;-78
2023/03/29 08:22:37;;;;;;;2.80;2.60;;;;;;;;;;5935018;24;20772;-81
2023/03/29 08:25:08;;;;;;;3.23;2.27;;;;;;;;;;5939270;23;20436;-79
2023/03/29 08:27:50;;;;;;;4.30;2.50;;;;;;;;;;6022057;23;20412;-78
2023/03/29 08:30:23;;;;;;;2.63;2.40;;;;;;;;;;6032398;23;20439;-79
2023/03/29 08:33:00;;;;;;;3.90;2.23;;;;;;;;;;6077792;23;20462;-79
2023/03/29 08:35:27;;;;;;;3.10;2.50;;;;;;;;;;6079621;23;20438;-78
2023/03/29 08:38:11;;;;;;;2.43;2.33;;;;;;;;;;6072665;23;20414;-77
2023/03/29 08:40:42;;;;;;;2.50;1.97;;;;;;;;;;6143880;23;20404;-78
2023/03/29 08:43:56;;;;;;;3.67;2.13;;;;;;;;;;6161443;23;20677;-77
2023/03/29 08:46:48;;;;;;;2.77;2.03;;;;;;;;;;6162730;23;20436;-76
2023/03/29 08:49:28;;;;;;;2.37;2.27;;;;;;;;;;6165045;23;20424;-80
2023/03/29 08:52:10;;;;;;;2.60;2.40;;;;;;;;;;6168554;23;20463;-81
2023/03/29 08:54:49;;;;;;;2.27;2.07;;;;;;;;;;6167412;23;20455;-77
2023/03/29 08:57:29;;;;;;;2.73;2.23;;;;;;;;;;6170427;23;20456;-76
2023/03/29 09:00:02;;;;;;;2.30;2.20;;;;;;;;;;6168101;23;20802;-79
2023/03/29 09:05:19;;;;;;;4.60;2.53;;;;;;;;;;6168313;23;20438;-79
2023/03/29 09:07:55;;;;;;;1.93;1.73;;;;;;;;;;6168160;23;20414;-78
2023/03/29 09:10:35;;;;;;;2.40;2.30;;;;;;;;;;6167032;23;20482;-78
2023/03/29 09:13:18;;;;;;;2.87;2.27;;;;;;;;;;6165859;23;20412;-77
2023/03/29 09:16:00;;;;;;;3.63;2.43;;;;;;;;;;6163820;23;20498;-79
2023/03/29 09:21:36;;;;;;;1.87;1.77;;;;;;;;;;6159512;23;20408;-77
2023/03/29 09:24:18;;;;;;;2.30;2.10;;;;;;;;;;6164141;23;20451;-77
2023/03/29 09:26:49;;;;;;;2.23;2.13;;;;;;;;;;6161036;23;20422;-77
2023/03/29 09:29:32;;;;;;;4.40;3.87;;;;;;;;;;6160607;23;20404;-79
2023/03/29 09:32:02;;;;;;;1.90;1.80;;;;;;;;;;6158566;23;20424;-77
2023/03/29 09:34:40;;;;;;;2.20;1.90;;;;;;;;;;6158080;23;20470;-78
2023/03/29 09:37:14;;;;;;;6.70;3.27;;;;;;;;;;6159365;23;20433;-79
2023/03/29 09:39:48;;;;;;;2.70;1.90;;;;;;;;;;6160470;23;20400;-77
2023/03/29 09:42:21;;;;;;;7.80;6.17;;;;;;;;;;6159133;23;20412;-78
2023/03/29 09:44:56;;;;;;;72.23;51.83;;;;;;;;;;6159651;23;20945;-79
2023/03/29 09:47:30;;;;;;;5.27;3.10;;;;;;;;;;6160828;23;20419;-78
2023/03/29 09:50:12;;;;;;;2.43;2.00;;;;;;;;;;6160878;23;20918;-78
2023/03/29 09:52:43;;;;;;;3.10;1.83;;;;;;;;;;6159967;23;20515;-79
2023/03/29 09:55:23;;;;;;;2.03;1.83;;;;;;;;;;6157895;23;20440;-82
2023/03/29 09:58:05;;;;;;;;;;;;;;;;;;;;;
2023/03/29 10:01:02;;;;;;;3.83;2.30;;;;;;;;;;6163447;23;20383;-80
2023/03/29 10:03:34;;;;;;;3.57;1.90;;;;;;;;;;6162927;23;20408;-78
2023/03/29 10:06:19;;;;;;;2.20;1.93;;;;;;;;;;6162498;23;20447;-78
2023/03/29 10:08:58;;;;;;;2.47;2.00;;;;;;;;;;6163212;23;20419;-78
2023/03/29 10:11:34;;;;;;;2.40;2.30;;;;;;;;;;6164338;23;20428;-78
2023/03/29 10:14:05;;;;;;;2.47;1.77;;;;;;;;;;6169690;23;20438;-79
2023/03/29 10:16:44;;;;;;;2.13;2.03;;;;;;;;;;6168060;23;20432;-78
2023/03/29 10:19:40;;;;;;;2.13;1.97;;;;;;;;;;6168294;23;20451;-77
2023/03/29 10:25:08;;;;;;;2.03;1.93;;;;;;;;;;6166590;23;20432;-78
2023/03/29 10:27:47;;;;;;;3.97;2.50;;;;;;;;;;6169424;23;20412;-78
2023/03/29 10:30:24;;;;;;;3.33;2.00;;;;;;;;;;6167939;23;20404;-78
2023/03/29 10:32:58;;;;;;;2.40;2.20;;;;;;;;;;6167232;23;20478;-78
2023/03/29 10:35:36;;;;;;;2.87;2.67;;;;;;;;;;6170592;23;20459;-77
2023/03/29 10:38:10;;;;;;;5.50;3.07;;;;;;;;;;6168066;23;20443;-77
2023/03/29 10:40:43;;;;;;;2.33;2.10;;;;;;;;;;6168490;23;20487;-78
2023/03/29 10:43:24;;;;;;;2.27;2.07;;;;;;;;;;6165619;23;20412;-77
2023/03/29 10:45:56;;;;;;;4.70;2.00;;;;;;;;;;6161120;23;20462;-78
2023/03/29 10:48:26;;;;;;;2.57;2.00;;;;;;;;;;6159097;23;20805;-77
2023/03/29 10:51:02;;;;;;;2.33;2.10;;;;;;;;;;6158132;23;20435;-79
2023/03/29 10:53:33;;;;;;;2.17;2.03;;;;;;;;;;6159192;23;20483;-79
2023/03/29 10:56:07;;;;;;;3.07;1.90;;;;;;;;;;6158768;23;20835;-77
2023/03/29 11:01:28;;;;;;;2.67;2.23;;;;;;;;;;6153449;23;20471;-77
2023/03/29 11:04:21;;;;;;;3.53;2.10;;;;;;;;;;6156467;23;20479;-77
2023/03/29 11:07:18;;;;;;;2.50;1.77;;;;;;;;;;6149415;23;20475;-78
2023/03/29 11:10:09;;;;;;;2.23;2.03;;;;;;;;;;6156694;23;20431;-77
2023/03/29 11:12:47;;;;;;;2.33;2.10;;;;;;;;;;6158912;23;20455;-78
2023/03/29 11:15:30;;;;;;;2.40;2.10;;;;;;;;;;6160010;23;20439;-77
2023/03/29 11:18:09;;;;;;;2.43;2.00;;;;;;;;;;6159525;23;20415;-78
2023/03/29 11:20:48;;;;;;;1.90;1.80;;;;;;;;;;6158296;23;20416;-79
2023/03/29 11:23:38;;;;;;;4.57;1.80;;;;;;;;;;6159451;23;20501;-79
2023/03/29 11:26:26;;;;;;;3.43;2.20;;;;;;;;;;6158682;23;20463;-77
2023/03/29 11:29:13;;;;;;;2.30;1.90;;;;;;;;;;6156811;23;20420;-78
2023/03/29 11:34:44;;;;;;;2.13;1.90;;;;;;;;;;6155312;23;20524;-80
2023/03/29 11:37:37;;;;;;;3.57;2.13;;;;;;;;;;6154808;23;20411;-78
2023/03/29 11:40:16;;;;;;;2.60;1.83;;;;;;;;;;6155034;23;20977;-78
2023/03/29 11:42:53;;;;;;;2.20;1.83;;;;;;;;;;6155517;23;20507;-78
2023/03/29 11:45:28;;;;;;;9.30;2.20;;;;;;;;;;6155336;23;20514;-77
2023/03/29 11:47:59;;;;;;;3.30;1.90;;;;;;;;;;6156058;23;20961;-77
2023/03/29 11:50:30;;;;;;;1.90;1.80;;;;;;;;;;6156278;23;20442;-78
2023/03/29 11:53:15;;;;;;;2.17;2.07;;;;;;;;;;6156765;23;20491;-78
2023/03/29 11:55:56;;;;;;;3.20;2.20;;;;;;;;;;6157240;23;20432;-79
2023/03/29 11:58:37;;;;;;;4.73;1.90;;;;;;;;;;6156829;23;20415;-78
2023/03/29 12:01:16;;;;;;;5.90;2.00;;;;;;;;;;6157721;23;20620;-77
2023/03/29 12:03:53;;;;;;;5.00;2.17;;;;;;;;;;6156769;23;20411;-77
2023/03/29 12:06:34;;;;;;;1.90;1.80;;;;;;;;;;6158576;23;20420;-78
2023/03/29 12:09:09;;;;;;;2.97;2.50;;;;;;;;;;6171281;23;20423;-77
2023/03/29 12:14:45;;;;;;;2.90;1.80;;;;;;;;;;6172900;23;20428;-77
2023/03/29 12:17:19;;;;;;;2.77;2.47;;;;;;;;;;6176335;23;20408;-78
2023/03/29 12:20:09;;;;;;;4.67;2.30;;;;;;;;;;6176569;23;20404;-80
2023/03/29 12:22:45;;;;;;;3.07;2.20;;;;;;;;;;6157276;23;20439;-77
2023/03/29 12:25:27;;;;;;;2.03;1.60;;;;;;;;;;6154198;23;20827;-77
2023/03/29 12:28:10;;;;;;;3.27;1.97;;;;;;;;;;6153939;23;20396;-77
2023/03/29 12:30:52;;;;;;;1.63;1.50;;;;;;;;;;6154747;23;20415;-77
2023/03/29 12:33:44;;;;;;;2.37;2.03;;;;;;;;;;6153749;23;20501;-78
2023/03/29 12:36:28;;;;;;;2.70;1.40;;;;;;;;;;6131051;23;20523;-77
2023/03/29 12:39:05;;;;;;;3.97;1.50;;;;;;;;;;6154883;23;20420;-77
2023/03/29 12:41:48;;;;;;;1.50;1.40;;;;;;;;;;6155870;23;20886;-77
2023/03/29 12:44:20;;;;;;;1.80;1.30;;;;;;;;;;6156222;23;20432;-77
2023/03/29 12:46:54;;;;;;;2.50;1.37;;;;;;;;;;6156129;23;20928;-77
2023/03/29 12:49:28;;;;;;;3.23;1.50;;;;;;;;;;6158756;23;21040;-78
2023/03/29 12:51:58;;;;;;;3.60;1.57;;;;;;;;;;6160345;23;20442;-77
2023/03/29 12:54:35;;;;;;;2.57;1.30;;;;;;;;;;6160985;23;20393;-79
2023/03/29 12:57:19;;;;;;;1.30;1.20;;;;;;;;;;6160202;23;20415;-76
2023/03/29 12:59:56;;;;;;;1.10;1.00;;;;;;;;;;6160239;23;20798;-77
2023/03/29 13:02:45;;;;;;;1.93;1.10;;;;;;;;;;6159694;23;20514;-77
2023/03/29 13:05:35;;;;;;;1.77;1.50;;;;;;;;;;6156980;23;20428;-76
2023/03/29 13:08:26;;;;;;;2.70;1.73;;;;;;;;;;6157475;23;20416;-77
2023/03/29 13:11:03;;;;;;;3.03;1.70;;;;;;;;;;6158823;23;20503;-78
2023/03/29 13:13:37;;;;;;;2.77;1.60;;;;;;;;;;6157577;23;20439;-78
2023/03/29 13:16:17;;;;;;;1.47;1.47;;;;;;;;;;6158827;23;20439;-78
2023/03/29 13:18:52;;;;;;;3.40;1.67;;;;;;;;;;6162603;23;20411;-78
2023/03/29 13:21:33;;;;;;;3.63;1.77;;;;;;;;;;6160086;23;20419;-77
2023/03/29 13:24:19;;;;;;;1.80;1.40;;;;;;;;;;6160325;23;20420;-77
2023/03/29 13:27:06;;;;;;;1.73;1.30;;;;;;;;;;6158804;23;20411;-77
2023/03/29 13:29:49;;;;;;;5.50;1.70;;;;;;;;;;6159046;23;20471;-77
2023/03/29 13:32:36;;;;;;;2.33;1.70;;;;;;;;;;6159297;23;20444;-78
2023/03/29 13:35:21;;;;;;;1.57;1.00;;;;;;;;;;6158276;23;20412;-79
2023/03/29 13:38:06;;;;;;;4.37;1.77;;;;;;;;;;6158652;23;20434;-79
2023/03/29 13:43:36;;;;;;;9.63;8.73;;;;;;;;;;6139013;23;20932;-77
2023/03/29 14:05:49;;;;;;;1.40;1.30;;;;;;;;;;5956442;24;20442;-78
2023/03/29 14:08:34;;;;;;;1.87;1.77;;;;;;;;;;5961269;23;20426;-78
2023/03/29 14:17:34;;;;;;;2.47;1.57;;;;;;;;;;6015561;23;20408;-78
2023/03/29 14:20:27;;;;;;;2.40;2.03;;;;;;;;;;6045943;23;20444;-77
2023/03/29 14:22:59;;;;;;;2.77;1.97;;;;;;;;;;6162420;23;20483;-76
2023/03/29 14:28:27;;;;;;;21.03;18.87;;;;;;;;;;6159051;23;20419;-78
2023/03/29 14:31:14;;;;;;;28.70;22.20;;;;;;;;;;6174428;23;20416;-79
2023/03/29 14:33:46;;;;;;;4.83;3.03;;;;;;;;;;6173969;23;20443;-79
2023/03/29 14:36:28;;;;;;;3.20;1.87;;;;;;;;;;6174993;23;20436;-78
2023/03/29 14:39:05;;;;;;;2.73;1.70;;;;;;;;;;6172551;23;20483;-79
2023/03/29 14:41:36;;;;;;;2.67;1.73;;;;;;;;;;6171152;23;20408;-77
2023/03/29 14:46:56;;;;;;;2.90;1.70;;;;;;;;;;6167720;23;20408;-79
2023/03/29 14:49:28;;;;;;;3.23;1.83;;;;;;;;;;6169579;23;20436;-78
2023/03/29 14:52:04;;;;;;;1.90;1.80;;;;;;;;;;6170473;23;20368;-77
2023/03/29 14:54:35;;;;;;;2.60;1.90;;;;;;;;;;6166791;23;20414;-79
2023/03/29 14:57:08;;;;;;;3.30;1.83;;;;;;;;;;6166771;23;20440;-78
2023/03/29 14:59:57;;;;;;;1.93;1.60;;;;;;;;;;6163331;23;20415;-78
2023/03/29 15:05:34;;;;;;;2.63;2.43;;;;;;;;;;6159341;23;20408;-78
2023/03/29 15:08:10;;;;;;;2.73;1.60;;;;;;;;;;6155595;23;20452;-78
2023/03/29 15:10:44;;;;;;;2.17;1.60;;;;;;;;;;6163798;23;20416;-78
2023/03/29 15:13:32;;;;;;;1.93;1.80;;;;;;;;;;6162398;23;20446;-77
2023/03/29 15:16:04;;;;;;;2.27;1.67;;;;;;;;;;6162136;23;20839;-78
2023/03/29 15:18:43;;;;;;;2.37;1.87;;;;;;;;;;6161647;23;20416;-79
2023/03/29 15:21:21;;;;;;;2.03;1.60;;;;;;;;;;6162242;23;20435;-79
2023/03/29 15:24:19;;;;;;;2.23;1.60;;;;;;;;;;6157413;23;20447;-78
2023/03/29 15:54:13;;;;;;;3.27;1.87;;;;;;;;;;6250308;23;20448;-77
2023/03/29 15:56:45;;;;;;;2.60;1.90;;;;;;;;;;6219406;23;20406;-77
2023/03/29 16:16:54;;;;;;;3.93;2.20;;;;;;;;;;6212801;23;20818;-76
2023/03/29 16:22:20;;;;;;;2.50;2.30;;;;;;;;;;6217545;23;20382;-78
2023/03/29 16:25:04;;;;;;;5.03;2.13;;;;;;;;;;6215915;23;20516;-77
2023/03/29 16:30:30;;;;;;;2.83;2.13;;;;;;;;;;6217575;23;20733;-77
2023/03/29 16:33:04;;;;;;;4.03;2.10;;;;;;;;;;6218988;23;20435;-78
2023/03/29 16:35:58;;;;;;;2.83;2.37;;;;;;;;;;6248245;22;20604;-77
2023/03/29 16:41:31;;;;;;;4.53;2.70;;;;;;;;;;6245651;23;20947;-78
2023/03/29 16:47:11;;;;;;;6.43;3.10;;;;;;;;;;6205670;23;20424;-78
2023/03/29 16:49:48;;;;;;;6.03;3.03;;;;;;;;;;6255146;23;20409;-76
2023/03/29 16:52:24;;;;;;;3.63;2.70;;;;;;;;;;6253280;23;20424;-78
2023/03/29 16:55:02;;;;;;;4.30;2.70;;;;;;;;;;6247645;22;20440;-77
2023/03/29 16:57:44;;;;;;;3.77;2.70;;;;;;;;;;6249017;23;20420;-75
2023/03/29 17:00:25;;;;;;;3.00;2.67;;;;;;;;;;6257867;23;20734;-78
2023/03/29 17:03:00;;;;;;;3.63;2.70;;;;;;;;;;6259347;23;20405;-78
2023/03/29 17:05:52;;;;;;;8.30;2.80;;;;;;;;;;6258685;22;20444;-77
2023/03/29 17:08:50;;;;;;;;;;;;;;;;;;;;;
2023/03/29 17:11:38;;;;;;;2.50;2.30;;;;;;;;;;6258160;23;20397;-78
2023/03/29 17:14:21;;;;;;;6.27;2.93;;;;;;;;;;6257964;23;20464;-78
2023/03/29 17:16:55;;;;;;;8.50;6.20;;;;;;;;;;6263453;23;20543;-79
2023/03/29 17:19:42;;;;;;;3.47;2.90;;;;;;;;;;6262718;23;20413;-77
2023/03/29 17:22:25;;;;;;;3.97;3.00;;;;;;;;;;6255224;23;20409;-76
2023/03/29 17:27:52;;;;;;;6.70;3.47;;;;;;;;;;6257269;23;20397;-76
2023/03/29 17:30:24;;;;;;;6.03;3.90;;;;;;;;;;6258625;23;20450;-77
2023/03/29 17:32:58;;;;;;;3.23;2.93;;;;;;;;;;6259344;23;20437;-77
2023/03/29 17:35:28;;;;;;;4.27;3.13;;;;;;;;;;6261009;22;20432;-76
2023/03/29 17:38:05;;;;;;;5.73;4.37;;;;;;;;;;6261943;23;20403;-78
2023/03/29 17:40:35;;;;;;;4.97;3.20;;;;;;;;;;6259980;23;20392;-79
2023/03/29 17:43:03;;;;;;;4.70;4.17;;;;;;;;;;6248784;23;20394;-76
2023/03/29 17:45:34;;;;;;;4.03;3.53;;;;;;;;;;6248873;22;20512;-77
2023/03/29 17:48:02;;;;;;;5.60;3.40;;;;;;;;;;6250674;23;20409;-79
2023/03/29 17:50:29;;;;;;;4.20;3.40;;;;;;;;;;6256040;23;20413;-79
2023/03/29 17:52:57;;;;;;;4.83;3.47;;;;;;;;;;6255019;23;20433;-80
2023/03/29 17:55:25;;;;;;;7.83;4.17;;;;;;;;;;6256485;22;20429;-78
2023/03/29 17:57:58;;;;;;;4.97;4.57;;;;;;;;;;6254936;23;20401;-79
2023/03/29 18:00:33;;;;;;;4.90;4.27;;;;;;;;;;6256560;23;20437;-79
2023/03/29 18:03:14;;;;;;;9.93;8.90;;;;;;;;;;6254349;23;20446;-78
2023/03/29 18:05:47;;;;;;;6.13;4.07;;;;;;;;;;6258919;22;20429;-79
2023/03/29 18:08:40;;;;;;;6.83;3.90;;;;;;;;;;6250698;23;20405;-80
2023/03/29 18:11:09;;;;;;;7.00;4.07;;;;;;;;;;6254128;23;20429;-80
2023/03/29 18:13:38;;;;;;;6.63;4.20;;;;;;;;;;6251297;23;20472;-79
2023/03/29 18:16:09;;;;;;;5.17;3.23;;;;;;;;;;6253363;22;20510;-78
2023/03/29 18:18:39;;;;;;;5.70;4.57;;;;;;;;;;6252373;23;20389;-79
2023/03/29 18:21:09;;;;;;;6.93;5.50;;;;;;;;;;6251678;23;20393;-79
2023/03/29 18:23:41;;;;;;;8.60;5.33;;;;;;;;;;6255056;23;20899;-80
2023/03/29 18:26:09;;;;;;;5.93;4.53;;;;;;;;;;6255924;22;20459;-79
2023/03/29 18:28:38;;;;;;;5.40;4.90;;;;;;;;;;6246202;23;20393;-79
2023/03/29 18:31:06;;;;;;;9.60;4.53;;;;;;;;;;6248038;23;20443;-80
2023/03/29 18:33:36;;;;;;;5.13;4.60;;;;;;;;;;6248382;23;20539;-81
2023/03/29 18:36:29;;;;;;;6.20;5.60;;;;;;;;;;6248112;22;20429;-78
2023/03/29 18:39:04;;;;;;;9.77;4.57;;;;;;;;;;6237595;23;20516;-79
2023/03/29 18:41:32;;;;;;;5.73;5.13;;;;;;;;;;6249165;23;20397;-79
2023/03/29 18:44:01;;;;;;;5.10;4.60;;;;;;;;;;6248089;23;20405;-79
2023/03/29 18:46:29;;;;;;;6.73;5.20;;;;;;;;;;6249570;22;20445;-78
2023/03/29 18:49:06;;;;;;;6.50;5.47;;;;;;;;;;6248912;23;20496;-79
2023/03/29 18:51:44;;;;;;;8.73;5.30;;;;;;;;;;6248239;23;20412;-80
2023/03/29 18:54:12;;;;;;;7.80;5.10;;;;;;;;;;6249635;23;20445;-81
2023/03/29 18:56:40;;;;;;;16.47;13.60;;;;;;;;;;6248137;22;20960;-80
2023/03/29 18:59:08;;;;;;;9.87;8.93;;;;;;;;;;6247794;23;20505;-80
2023/03/29 19:01:36;;;;;;;13.10;8.63;;;;;;;;;;6249317;23;20452;-81
2023/03/29 19:04:04;;;;;;;11.70;6.17;;;;;;;;;;6248458;23;20409;-79
2023/03/29 19:06:49;;;;;;;5.60;4.63;;;;;;;;;;6251465;22;20430;-77
2023/03/29 19:09:26;;;;;;;6.57;5.00;;;;;;;;;;6250995;23;20417;-80
2023/03/29 19:11:59;;;;;;;7.80;5.37;;;;;;;;;;6251348;23;20421;-79
2023/03/29 19:14:34;;;;;;;8.77;5.37;;;;;;;;;;6251236;22;20460;-78
2023/03/29 19:17:13;;;;;;;6.57;5.10;;;;;;;;;;6252005;23;20421;-80
2023/03/29 19:19:44;;;;;;;7.00;5.57;;;;;;;;;;6250459;23;20444;-79
2023/03/29 19:25:10;;;;;;;7.23;5.93;;;;;;;;;;6246095;22;20421;-78
2023/03/29 19:27:52;;;;;;;13.10;5.57;;;;;;;;;;6254284;23;20387;-78
2023/03/29 19:30:27;;;;;;;7.70;5.67;;;;;;;;;;6253692;23;20413;-78
2023/03/29 19:32:55;;;;;;;6.40;4.43;;;;;;;;;;6257172;23;20482;-79
2023/03/29 19:35:26;;;;;;;6.27;4.70;;;;;;;;;;6256948;22;20449;-78
2023/03/29 19:38:02;;;;;;;6.60;5.13;;;;;;;;;;6256715;23;20413;-78
2023/03/29 19:40:31;;;;;;;8.87;5.00;;;;;;;;;;6257248;23;20409;-78
2023/03/29 19:43:03;;;;;;;7.10;5.33;;;;;;;;;;6256073;23;20410;-79
2023/03/29 19:45:38;;;;;;;7.27;4.80;;;;;;;;;;6258513;22;20760;-78
2023/03/29 19:48:22;;;;;;;7.70;4.93;;;;;;;;;;6259994;23;20409;-80
2023/03/29 19:51:05;;;;;;;6.10;4.60;;;;;;;;;;6260120;23;20574;-79
2023/03/29 19:53:36;;;;;;;5.77;5.03;;;;;;;;;;6259526;23;20651;-79
2023/03/29 19:56:12;;;;;;;9.20;5.30;;;;;;;;;;6233084;23;20421;-79